createdAt,value
2022-11-08T00:00:22.137Z,15.00
2022-11-08T00:02:23.842Z,20.40
2022-11-08T00:04:25.657Z,23.40
2022-11-08T00:06:46.114Z,20.25
2022-11-08T00:09:06.104Z,15.07
2022-11-08T00:11:26.002Z,15.30
2022-11-08T00:13:46.069Z,14.65
2022-11-08T00:15:47.479Z,24.52
2022-11-08T00:17:49.126Z,15.15
2022-11-08T00:19:51.088Z,21.20
2022-11-08T00:21:52.594Z,21.83
2022-11-08T00:23:54.066Z,13.75
2022-11-08T00:25:55.757Z,18.52
2022-11-08T00:27:57.445Z,12.98
2022-11-08T00:29:58.996Z,18.08
2022-11-08T00:32:00.426Z,13.20
2022-11-08T00:34:01.911Z,15.98
2022-11-08T00:36:04.092Z,19.50
2022-11-08T00:38:05.504Z,18.75
2022-11-08T00:40:07.250Z,29.52
2022-11-08T00:42:08.981Z,15.13
2022-11-08T00:44:11.441Z,26.52
2022-11-08T00:46:13.090Z,22.70
2022-11-08T00:48:14.695Z,21.42
2022-11-08T00:50:16.356Z,20.02
2022-11-08T00:52:22.910Z,18.70
2022-11-08T00:54:36.434Z,16.73
2022-11-08T00:56:42.743Z,32.92
2022-11-08T00:58:47.810Z,19.50
2022-11-08T01:00:56.274Z,22.90
2022-11-08T01:03:25.567Z,26.58
2022-11-08T01:05:35.681Z,27.70
2022-11-08T01:07:46.532Z,20.73
2022-11-08T01:09:57.034Z,26.38
2022-11-08T01:12:02.891Z,15.02
2022-11-08T01:14:10.260Z,19.00
2022-11-08T01:16:28.024Z,21.83
2022-11-08T01:18:37.947Z,24.98
2022-11-08T01:20:47.888Z,21.73
2022-11-08T01:22:51.442Z,27.38
2022-11-08T01:24:53.088Z,27.52
2022-11-08T01:26:54.561Z,28.13
2022-11-08T01:28:56.695Z,27.67
2022-11-08T01:30:58.129Z,31.33
2022-11-08T01:32:59.507Z,34.53
2022-11-08T01:35:00.909Z,26.73
2022-11-08T01:37:02.357Z,27.17
2022-11-08T01:39:04.035Z,31.83
2022-11-08T01:41:06.178Z,28.02
2022-11-08T01:43:26.002Z,21.23
2022-11-08T01:45:46.405Z,23.58
2022-11-08T01:47:47.789Z,27.42
2022-11-08T01:49:51.320Z,15.55
2022-11-08T01:51:55.565Z,27.55
2022-11-08T01:53:58.626Z,14.40
2022-11-08T01:56:00.301Z,22.33
2022-11-08T01:58:03.672Z,20.60
2022-11-08T02:00:06.935Z,27.23
2022-11-08T02:02:09.350Z,22.75
2022-11-08T02:04:12.335Z,17.55
2022-11-08T02:06:14.006Z,18.13
2022-11-08T02:08:27.025Z,29.30
2022-11-08T02:10:31.796Z,11.23
2022-11-08T02:12:33.186Z,23.90
2022-11-08T02:14:35.984Z,29.60
2022-11-08T02:16:37.522Z,19.23
2022-11-08T02:18:39.943Z,24.83
2022-11-08T02:20:44.148Z,25.42
2022-11-08T02:22:52.504Z,24.20
2022-11-08T02:24:54.311Z,23.60
2022-11-08T02:26:56.144Z,34.22
2022-11-08T02:28:57.686Z,26.55
2022-11-08T02:30:59.275Z,26.02
2022-11-08T02:33:00.787Z,29.70
2022-11-08T02:35:02.466Z,22.20
2022-11-08T02:37:04.192Z,18.42
2022-11-08T02:39:05.746Z,22.48
2022-11-08T02:41:07.373Z,21.10
2022-11-08T02:43:08.808Z,23.42
2022-11-08T02:45:10.310Z,17.13
2022-11-08T02:47:11.857Z,19.08
2022-11-08T02:49:13.293Z,20.20
2022-11-08T02:51:14.795Z,20.52
2022-11-08T02:53:16.269Z,13.80
2022-11-08T02:55:17.712Z,30.75
2022-11-08T02:57:19.367Z,23.83
2022-11-08T02:59:20.812Z,15.65
2022-11-08T03:01:22.503Z,22.65
2022-11-08T03:03:24.453Z,19.42
2022-11-08T03:05:26.495Z,14.32
2022-11-08T03:07:27.905Z,17.85
2022-11-08T03:09:29.663Z,16.58
2022-11-08T03:11:31.185Z,10.75
2022-11-08T03:13:32.647Z,13.50
2022-11-08T03:15:34.069Z,17.48
2022-11-08T03:17:35.604Z,13.05
2022-11-08T03:19:37.074Z,14.75
2022-11-08T03:21:38.482Z,23.20
2022-11-08T03:23:39.997Z,17.33
2022-11-08T03:25:41.433Z,19.40
2022-11-08T03:27:42.844Z,20.77
2022-11-08T03:29:44.290Z,29.67
2022-11-08T03:31:45.719Z,19.10
2022-11-08T03:33:47.483Z,15.48
2022-11-08T03:35:49.492Z,21.35
2022-11-08T03:37:51.585Z,17.13
2022-11-08T03:39:53.240Z,24.30
2022-11-08T03:41:54.658Z,20.40
2022-11-08T03:43:56.099Z,17.92
2022-11-08T03:45:57.706Z,18.25
2022-11-08T03:47:59.157Z,16.88
2022-11-08T03:50:00.622Z,11.50
2022-11-08T03:52:02.177Z,15.55
2022-11-08T03:54:03.989Z,18.52
2022-11-08T03:56:11.573Z,19.08
2022-11-08T03:58:25.538Z,13.68
2022-11-08T04:00:39.103Z,15.77
2022-11-08T04:02:50.781Z,18.88
2022-11-08T04:05:03.219Z,17.13
2022-11-08T04:07:14.485Z,25.45
2022-11-08T04:09:28.645Z,27.42
2022-11-08T04:11:56.863Z,17.02
2022-11-08T04:14:24.699Z,20.50
2022-11-08T04:16:39.511Z,22.40
2022-11-08T04:19:07.979Z,29.90
2022-11-08T04:21:29.396Z,25.50
2022-11-08T04:23:40.633Z,21.15
2022-11-08T04:25:59.256Z,22.60
2022-11-08T04:28:01.605Z,23.50
2022-11-08T04:30:03.157Z,23.02
2022-11-08T04:32:04.810Z,22.42
2022-11-08T04:34:06.582Z,23.27
2022-11-08T04:36:09.772Z,22.33
2022-11-08T04:38:11.505Z,24.50
2022-11-08T04:40:13.231Z,32.17
2022-11-08T04:42:14.653Z,25.10
2022-11-08T04:44:18.345Z,22.40
2022-11-08T04:46:21.397Z,18.17
2022-11-08T04:48:22.963Z,23.65
2022-11-08T04:50:24.412Z,33.10
2022-11-08T04:52:26.096Z,15.93
2022-11-08T04:54:27.808Z,23.05
2022-11-08T04:56:30.196Z,28.77
2022-11-08T04:58:36.062Z,15.45
2022-11-08T05:00:37.578Z,23.88
2022-11-08T05:02:39.184Z,31.98
2022-11-08T05:04:40.733Z,26.83
2022-11-08T05:06:42.182Z,31.30
2022-11-08T05:08:44.144Z,31.95
2022-11-08T05:10:45.542Z,31.85
2022-11-08T05:12:47.288Z,29.35
2022-11-08T05:14:48.680Z,26.42
2022-11-08T05:16:50.956Z,31.58
2022-11-08T05:18:52.367Z,32.83
2022-11-08T05:21:13.137Z,30.83
2022-11-08T05:23:26.722Z,28.17
2022-11-08T05:25:28.136Z,25.58
2022-11-08T05:27:29.659Z,28.30
2022-11-08T05:29:31.120Z,38.55
2022-11-08T05:31:32.579Z,25.80
2022-11-08T05:33:34.047Z,31.08
2022-11-08T05:35:36.314Z,32.78
2022-11-08T05:37:40.505Z,32.05
2022-11-08T05:41:43.268Z,31.27
2022-11-08T05:43:51.441Z,31.17
2022-11-08T05:45:53.140Z,32.40
2022-11-08T05:47:54.836Z,25.52
2022-11-08T05:49:56.331Z,38.10
2022-11-08T05:51:57.844Z,26.92
2022-11-08T05:53:59.301Z,40.35
2022-11-08T05:56:02.159Z,34.90
2022-11-08T05:58:03.883Z,38.75
2022-11-08T06:00:05.566Z,40.90
2022-11-08T06:02:07.098Z,38.35
2022-11-08T06:04:08.744Z,37.78
2022-11-08T06:06:11.558Z,29.60
2022-11-08T06:08:13.038Z,38.22
2022-11-08T06:10:14.611Z,40.08
2022-11-08T06:12:16.297Z,29.05
2022-11-08T06:14:18.011Z,49.78
2022-11-08T06:16:20.325Z,40.30
2022-11-08T06:18:22.049Z,32.75
2022-11-08T06:20:23.520Z,34.00
2022-11-08T06:22:24.997Z,34.92
2022-11-08T06:24:26.492Z,42.92
2022-11-08T06:26:28.001Z,38.53
2022-11-08T06:28:29.780Z,30.17
2022-11-08T06:30:31.316Z,34.80
2022-11-08T06:32:32.725Z,29.52
2022-11-08T06:34:34.152Z,40.83
2022-11-08T06:36:36.071Z,45.83
2022-11-08T06:38:37.652Z,35.28
2022-11-08T06:40:39.404Z,25.98
2022-11-08T06:42:40.764Z,44.30
2022-11-08T06:44:42.346Z,39.38
2022-11-08T06:46:43.832Z,37.85
2022-11-08T06:48:45.315Z,38.45
2022-11-08T06:50:46.938Z,34.33
2022-11-08T06:52:48.409Z,38.58
2022-11-08T06:54:49.823Z,40.97
2022-11-08T06:56:51.317Z,40.72
2022-11-08T06:58:52.946Z,34.00
2022-11-08T07:00:54.410Z,42.20
2022-11-08T07:03:01.778Z,44.08
2022-11-08T07:05:11.871Z,45.83
2022-11-08T07:07:22.104Z,35.03
2022-11-08T07:09:35.370Z,33.38
2022-11-08T07:11:45.424Z,35.72
2022-11-08T07:13:57.373Z,35.47
2022-11-08T07:16:06.092Z,30.92
2022-11-08T07:18:17.944Z,30.95
2022-11-08T07:20:31.439Z,42.80
2022-11-08T07:22:39.629Z,28.98
2022-11-08T07:24:50.705Z,28.83
2022-11-08T07:26:56.002Z,37.92
2022-11-08T07:29:07.220Z,29.42
2022-11-08T07:31:14.226Z,39.33
2022-11-08T07:33:24.650Z,36.00
2022-11-08T07:35:28.688Z,30.88
2022-11-08T07:37:30.117Z,44.60
2022-11-08T07:39:34.441Z,32.92
2022-11-08T07:41:35.868Z,34.78
2022-11-08T07:43:37.449Z,31.00
2022-11-08T07:45:39.119Z,37.22
2022-11-08T07:47:40.692Z,39.72
2022-11-08T07:49:42.101Z,40.72
2022-11-08T07:51:43.810Z,46.60
2022-11-08T07:53:45.247Z,43.20
2022-11-08T07:55:48.123Z,45.78
2022-11-08T07:57:49.826Z,51.65
2022-11-08T07:59:51.284Z,40.55
2022-11-08T08:01:52.758Z,54.78
2022-11-08T08:03:54.458Z,47.65
2022-11-08T08:06:00.758Z,53.70
2022-11-08T08:08:03.019Z,41.53
2022-11-08T08:10:04.886Z,34.78
2022-11-08T08:12:08.151Z,45.03
2022-11-08T08:14:09.573Z,41.30
2022-11-08T08:16:11.041Z,47.35
2022-11-08T08:18:12.690Z,43.97
2022-11-08T08:20:14.103Z,44.28
2022-11-08T08:22:15.631Z,51.03
2022-11-08T08:24:17.447Z,39.80
2022-11-08T08:26:19.425Z,47.13
2022-11-08T08:28:21.286Z,38.72
2022-11-08T08:30:23.853Z,35.53
2022-11-08T08:32:28.259Z,47.90
2022-11-08T08:34:33.067Z,42.15
2022-11-08T08:36:34.490Z,34.97
2022-11-08T08:38:41.399Z,39.75
2022-11-08T08:40:45.625Z,40.33
2022-11-08T08:42:47.054Z,41.40
2022-11-08T08:44:48.872Z,45.33
2022-11-08T08:46:50.285Z,38.78
2022-11-08T08:48:51.762Z,39.90
2022-11-08T08:50:53.525Z,37.65
2022-11-08T08:52:59.378Z,30.02
2022-11-08T08:55:02.280Z,28.38
2022-11-08T08:57:03.777Z,17.42
2022-11-08T09:01:42.533Z,22.20
2022-11-08T09:03:44.176Z,25.90
2022-11-08T09:05:46.947Z,29.15
2022-11-08T09:07:48.475Z,22.13
2022-11-08T09:09:49.897Z,24.50
2022-11-08T09:11:51.385Z,29.08
2022-11-08T09:13:53.324Z,21.23
2022-11-08T09:15:55.334Z,24.48
2022-11-08T09:17:57.156Z,34.63
2022-11-08T09:19:58.904Z,26.75
2022-11-08T09:22:00.462Z,32.30
2022-11-08T09:24:02.200Z,39.05
2022-11-08T09:26:04.456Z,25.65
2022-11-08T09:28:05.936Z,25.17
2022-11-08T09:30:07.938Z,29.38
2022-11-08T09:32:09.491Z,34.13
2022-11-08T09:34:11.009Z,28.85
2022-11-08T09:36:13.789Z,28.17
2022-11-08T09:38:15.480Z,26.95
2022-11-08T09:40:18.489Z,16.35
2022-11-08T09:42:40.457Z,23.38
2022-11-08T09:44:55.385Z,27.77
2022-11-08T09:46:58.349Z,22.20
2022-11-08T09:49:00.657Z,22.15
2022-11-08T09:51:21.194Z,22.48
2022-11-08T09:53:35.404Z,27.02
2022-11-08T09:55:42.656Z,33.15
2022-11-08T09:57:50.914Z,37.72
2022-11-08T09:59:55.106Z,39.53
2022-11-08T10:03:59.724Z,34.47
2022-11-08T10:06:04.516Z,36.58
2022-11-08T10:08:10.154Z,33.28
2022-11-08T10:10:35.755Z,36.38
2022-11-08T10:12:54.864Z,34.55
2022-11-08T10:15:02.832Z,28.77
2022-11-08T10:17:25.497Z,30.38
2022-11-08T10:19:47.720Z,41.83
2022-11-08T10:21:55.864Z,31.08
2022-11-08T10:24:17.780Z,31.95
2022-11-08T10:26:26.891Z,31.58
2022-11-08T10:28:35.771Z,24.58
2022-11-08T10:30:40.795Z,18.00
2022-11-08T10:32:43.353Z,25.33
2022-11-08T10:35:08.655Z,22.13
2022-11-08T10:37:17.200Z,28.10
2022-11-08T10:39:27.772Z,29.00
2022-11-08T10:41:33.750Z,29.63
2022-11-08T10:43:38.341Z,26.45
2022-11-08T10:45:40.215Z,26.10
2022-11-08T10:47:44.776Z,24.83
2022-11-08T10:49:46.381Z,43.63
2022-11-08T10:51:49.281Z,28.73
2022-11-08T10:53:50.990Z,27.52
2022-11-08T10:55:58.177Z,33.30
2022-11-08T10:58:00.534Z,29.98
2022-11-08T11:00:20.282Z,33.67
2022-11-08T11:02:29.739Z,28.95
2022-11-08T11:04:32.364Z,37.38
2022-11-08T11:06:33.968Z,42.70
2022-11-08T11:08:47.894Z,37.72
2022-11-08T11:10:49.728Z,30.10
2022-11-08T11:12:51.836Z,26.58
2022-11-08T11:15:00.747Z,35.78
2022-11-08T11:17:08.970Z,28.83
2022-11-08T11:19:14.258Z,30.63
2022-11-08T11:21:18.516Z,23.85
2022-11-08T11:23:20.534Z,27.70
2022-11-08T11:25:23.694Z,25.60
2022-11-08T11:27:31.014Z,31.37
2022-11-08T11:29:33.793Z,23.80
2022-11-08T11:31:35.200Z,22.65
2022-11-08T11:33:42.917Z,29.85
2022-11-08T11:35:49.509Z,28.90
2022-11-08T11:37:51.224Z,28.20
2022-11-08T11:40:07.598Z,30.10
2022-11-08T11:42:43.781Z,24.15
2022-11-08T11:44:51.768Z,18.13
2022-11-08T11:47:05.163Z,26.80
2022-11-08T11:49:12.306Z,17.30
2022-11-08T11:51:14.143Z,25.73
2022-11-08T11:53:20.238Z,23.65
2022-11-08T11:55:26.545Z,23.10
2022-11-08T11:57:57.301Z,20.23
2022-11-08T12:00:01.900Z,23.42
2022-11-08T12:02:15.808Z,15.20
2022-11-08T12:04:41.613Z,26.63
2022-11-08T12:06:55.477Z,28.05
2022-11-08T12:09:03.233Z,18.55
2022-11-08T12:11:12.319Z,17.83
2022-11-08T12:13:23.280Z,30.88
2022-11-08T12:15:31.972Z,22.33
2022-11-08T12:17:36.670Z,25.52
2022-11-08T12:19:38.316Z,21.83
2022-11-08T12:21:39.744Z,20.98
2022-11-08T12:23:41.427Z,19.20
2022-11-08T12:26:01.799Z,19.38
2022-11-08T12:28:10.094Z,27.58
2022-11-08T12:30:19.965Z,25.67
2022-11-08T12:32:24.588Z,19.90
2022-11-08T12:34:37.976Z,25.73
2022-11-08T12:36:58.188Z,18.77
2022-11-08T12:39:09.258Z,31.58
2022-11-08T12:41:34.636Z,25.08
2022-11-08T12:44:05.027Z,23.63
2022-11-08T12:49:29.289Z,21.20
2022-11-08T12:51:36.703Z,23.25
2022-11-08T12:53:38.481Z,18.75
2022-11-08T12:55:42.163Z,28.23
2022-11-08T12:57:45.182Z,20.60
2022-11-08T12:59:56.491Z,23.70
2022-11-08T13:01:58.377Z,30.65
2022-11-08T13:04:19.568Z,38.55
2022-11-08T13:06:24.362Z,43.17
2022-11-08T13:08:31.489Z,37.17
2022-11-08T13:10:48.295Z,36.60
2022-11-08T13:13:16.977Z,32.08
2022-11-08T13:15:29.753Z,46.45
2022-11-08T13:17:33.789Z,34.03
2022-11-08T13:20:00.668Z,24.35
2022-11-08T13:22:26.681Z,18.77
2022-11-08T13:24:49.287Z,13.98
2022-11-08T13:26:55.876Z,18.17
2022-11-08T13:29:23.274Z,18.25
2022-11-08T13:31:33.063Z,21.15
2022-11-08T13:33:37.920Z,13.23
2022-11-08T13:35:59.533Z,16.75
2022-11-08T13:38:28.666Z,16.58
2022-11-08T13:40:45.943Z,14.25
2022-11-08T13:43:01.348Z,12.70
2022-11-08T13:45:19.043Z,21.08
2022-11-08T13:47:33.065Z,20.00
2022-11-08T13:49:34.486Z,22.53
2022-11-08T13:51:36.631Z,25.08
2022-11-08T13:53:51.444Z,30.63
2022-11-08T13:55:53.509Z,33.58
2022-11-08T13:57:56.614Z,30.58
2022-11-08T13:59:58.290Z,25.52
2022-11-08T14:02:29.615Z,32.42
2022-11-08T14:04:33.613Z,30.60
2022-11-08T14:06:52.645Z,35.45
2022-11-08T14:08:54.084Z,20.05
2022-11-08T14:11:03.099Z,16.58
2022-11-08T14:13:17.903Z,29.20
2022-11-08T14:15:40.976Z,31.40
2022-11-08T14:17:47.604Z,24.02
2022-11-08T14:19:50.537Z,17.45
2022-11-08T14:21:53.962Z,29.23
2022-11-08T14:23:56.016Z,30.15
2022-11-08T14:25:58.655Z,21.60
2022-11-08T14:28:00.084Z,27.60
2022-11-08T14:30:02.275Z,26.40
2022-11-08T14:32:12.954Z,29.52
2022-11-08T14:34:27.842Z,21.80
2022-11-08T14:36:30.420Z,22.92
2022-11-08T14:38:33.710Z,14.02
2022-11-08T14:40:35.641Z,14.57
2022-11-08T14:42:37.097Z,11.30
2022-11-08T14:44:38.924Z,22.35
2022-11-08T14:46:40.628Z,11.82
2022-11-08T14:48:54.303Z,16.45
2022-11-08T14:51:02.561Z,16.35
2022-11-08T14:53:26.168Z,17.55
2022-11-08T14:55:27.646Z,16.42
2022-11-08T14:57:33.170Z,20.55
2022-11-08T14:59:34.693Z,21.33
2022-11-08T15:01:36.362Z,19.88
2022-11-08T15:03:38.177Z,20.75
2022-11-08T15:05:48.139Z,30.50
2022-11-08T15:07:49.678Z,20.67
2022-11-08T15:09:51.278Z,24.15
2022-11-08T15:11:54.184Z,26.45
2022-11-08T15:14:06.363Z,31.30
2022-11-08T15:16:08.402Z,28.48
2022-11-08T15:18:13.416Z,24.88
2022-11-08T15:20:20.330Z,18.38
2022-11-08T15:22:23.291Z,24.23
2022-11-08T15:24:33.672Z,25.48
2022-11-08T15:26:35.701Z,33.92
2022-11-08T15:28:37.453Z,21.10
2022-11-08T15:30:41.311Z,18.00
2022-11-08T15:32:43.352Z,21.02
2022-11-08T15:34:45.205Z,25.30
2022-11-08T15:36:47.256Z,20.23
2022-11-08T15:38:49.545Z,21.17
2022-11-08T15:40:52.250Z,25.00
2022-11-08T15:42:54.152Z,24.42
2022-11-08T15:45:00.299Z,18.45
2022-11-08T15:47:01.759Z,31.38
2022-11-08T15:49:13.884Z,26.52
2022-11-08T15:51:15.927Z,38.88
2022-11-08T15:53:17.419Z,30.77
2022-11-08T15:55:26.342Z,26.35
2022-11-08T15:57:27.753Z,31.67
2022-11-08T15:59:29.952Z,37.45
2022-11-08T16:01:31.458Z,29.02
2022-11-08T16:03:34.729Z,37.38
2022-11-08T16:05:36.381Z,38.22
2022-11-08T16:07:38.046Z,42.78
2022-11-08T16:09:39.509Z,36.22
2022-11-08T16:11:42.165Z,29.50
2022-11-08T16:13:43.673Z,37.45
2022-11-08T16:15:45.833Z,33.67
2022-11-08T16:17:47.403Z,31.80
2022-11-08T16:19:49.697Z,33.33
2022-11-08T16:21:56.311Z,36.40
2022-11-08T16:24:02.091Z,32.95
2022-11-08T16:26:16.223Z,37.35
2022-11-08T16:28:24.909Z,24.83
2022-11-08T16:33:20.742Z,28.88
2022-11-08T16:35:26.137Z,34.92
2022-11-08T16:37:30.970Z,30.88
2022-11-08T16:39:33.583Z,34.97
2022-11-08T16:41:49.033Z,28.00
2022-11-08T16:43:54.935Z,30.20
2022-11-08T16:46:05.488Z,35.72
2022-11-08T16:48:21.125Z,23.55
2022-11-08T16:50:32.941Z,33.47
2022-11-08T16:52:36.275Z,30.38
2022-11-08T16:54:38.115Z,28.70
2022-11-08T16:56:39.574Z,20.25
2022-11-08T16:58:41.739Z,35.72
2022-11-08T17:00:44.374Z,26.90
2022-11-08T17:02:50.147Z,27.00
2022-11-08T17:04:51.565Z,28.40
2022-11-08T17:06:53.177Z,31.85
2022-11-08T17:08:54.639Z,36.70
2022-11-08T17:10:56.104Z,34.80
2022-11-08T17:12:57.922Z,27.73
2022-11-08T17:14:59.618Z,26.05
2022-11-08T17:17:01.069Z,33.90
2022-11-08T17:19:03.033Z,23.52
2022-11-08T17:21:23.251Z,31.65
2022-11-08T17:23:26.830Z,31.75
2022-11-08T17:25:28.342Z,32.78
2022-11-08T17:27:29.788Z,37.13
2022-11-08T17:29:31.270Z,36.38
2022-11-08T17:31:33.065Z,28.95
2022-11-08T17:33:34.532Z,36.75
2022-11-08T17:35:41.056Z,39.33
2022-11-08T17:37:44.283Z,34.10
2022-11-08T17:39:47.302Z,28.42
2022-11-08T17:41:48.752Z,24.33
2022-11-08T17:43:50.755Z,31.65
2022-11-08T17:45:52.302Z,39.13
2022-11-08T17:47:54.011Z,29.02
2022-11-08T17:49:55.604Z,31.65
2022-11-08T17:51:57.206Z,30.02
2022-11-08T17:53:58.664Z,30.60
2022-11-08T17:56:01.350Z,34.17
2022-11-08T17:58:02.854Z,33.55
2022-11-08T18:00:08.639Z,20.50
2022-11-08T18:02:12.795Z,32.05
2022-11-08T18:04:14.521Z,28.02
2022-11-08T18:06:16.610Z,24.10
2022-11-08T18:08:19.537Z,28.58
2022-11-08T18:10:24.197Z,21.67
2022-11-08T18:12:25.652Z,24.95
2022-11-08T18:14:28.997Z,40.40
2022-11-08T18:16:30.588Z,39.40
2022-11-08T18:18:32.032Z,33.83
2022-11-08T18:20:33.432Z,40.75
2022-11-08T18:22:34.986Z,39.90
2022-11-08T18:24:36.437Z,30.55
2022-11-08T18:26:38.042Z,28.67
2022-11-08T18:28:40.191Z,35.35
2022-11-08T18:30:46.604Z,33.00
2022-11-08T18:32:49.747Z,35.25
2022-11-08T18:34:51.221Z,37.55
2022-11-08T18:36:52.697Z,33.35
2022-11-08T18:38:56.485Z,28.27
2022-11-08T18:40:57.933Z,27.23
2022-11-08T18:42:59.354Z,29.10
2022-11-08T18:45:01.026Z,33.17
2022-11-08T18:47:02.472Z,37.08
2022-11-08T18:49:05.124Z,41.42
2022-11-08T18:51:07.929Z,30.98
2022-11-08T18:53:09.508Z,25.92
2022-11-08T18:55:11.962Z,38.97
2022-11-08T18:57:13.432Z,30.20
2022-11-08T18:59:14.926Z,28.55
2022-11-08T19:01:16.799Z,27.25
2022-11-08T19:03:18.578Z,29.23
2022-11-08T19:05:20.577Z,32.17
2022-11-08T19:07:23.574Z,39.50
2022-11-08T19:09:25.257Z,31.27
2022-11-08T19:11:30.416Z,22.13
2022-11-08T19:13:33.096Z,33.25
2022-11-08T19:15:34.511Z,19.15
2022-11-08T19:17:36.368Z,33.17
2022-11-08T19:19:37.761Z,36.13
2022-11-08T19:21:41.738Z,29.70
2022-11-08T19:23:45.753Z,30.13
2022-11-08T19:25:58.155Z,34.45
2022-11-08T19:28:07.077Z,38.38
2022-11-08T19:30:11.738Z,29.65
2022-11-08T19:32:14.338Z,38.45
2022-11-08T19:34:19.989Z,22.95
2022-11-08T19:36:25.186Z,37.33
2022-11-08T19:38:28.137Z,36.40
2022-11-08T19:40:32.349Z,38.83
2022-11-08T19:42:34.994Z,35.60
2022-11-08T19:44:39.719Z,36.97
2022-11-08T19:46:44.255Z,32.70
2022-11-08T19:48:47.909Z,31.55
2022-11-08T19:50:54.171Z,26.08
2022-11-08T19:52:56.118Z,23.85
2022-11-08T19:54:57.568Z,25.70
2022-11-08T19:57:06.601Z,36.45
2022-11-08T19:59:10.269Z,27.80
2022-11-08T20:01:15.839Z,21.67
2022-11-08T20:03:17.434Z,24.58
2022-11-08T20:05:19.310Z,31.85
2022-11-08T20:07:20.789Z,26.77
2022-11-08T20:09:27.379Z,32.92
2022-11-08T20:11:33.541Z,39.88
2022-11-08T20:13:34.972Z,34.40
2022-11-08T20:15:36.374Z,35.55
2022-11-08T20:17:37.798Z,36.78
2022-11-08T20:19:39.516Z,41.22
2022-11-08T20:21:42.550Z,35.13
2022-11-08T20:23:44.801Z,40.80
2022-11-08T20:25:46.200Z,42.35
2022-11-08T20:27:48.319Z,46.25
2022-11-08T20:29:50.546Z,45.33
2022-11-08T20:31:53.293Z,36.45
2022-11-08T20:33:54.773Z,34.70
2022-11-08T20:35:56.254Z,33.35
2022-11-08T20:37:57.783Z,38.75
2022-11-08T20:39:59.261Z,47.60
2022-11-08T20:42:00.735Z,41.13
2022-11-08T20:44:02.708Z,36.30
2022-11-08T20:46:04.820Z,38.10
2022-11-08T20:48:06.695Z,47.85
2022-11-08T20:50:09.270Z,45.03
2022-11-08T20:52:10.649Z,33.85
2022-11-08T20:54:12.369Z,34.80
2022-11-08T20:56:15.909Z,36.50
2022-11-08T21:00:32.961Z,38.65
2022-11-08T21:02:41.662Z,29.48
2022-11-08T21:04:43.857Z,35.90
2022-11-08T21:06:45.414Z,38.47
2022-11-08T21:08:59.023Z,34.00
2022-11-08T21:11:03.341Z,32.40
2022-11-08T21:13:05.730Z,36.90
2022-11-08T21:15:07.582Z,34.20
2022-11-08T21:17:21.892Z,31.38
2022-11-08T21:19:25.345Z,24.58
2022-11-08T21:21:26.803Z,35.63
2022-11-08T21:23:28.539Z,40.58
2022-11-08T21:25:30.196Z,31.13
2022-11-08T21:27:36.996Z,28.23
2022-11-08T21:29:38.578Z,29.85
2022-11-08T21:31:40.012Z,34.83
2022-11-08T21:33:41.782Z,30.38
2022-11-08T21:35:43.329Z,40.33
2022-11-08T21:37:45.025Z,32.92
2022-11-08T21:39:46.568Z,38.90
2022-11-08T21:41:47.999Z,28.85
2022-11-08T21:43:49.464Z,30.13
2022-11-08T21:45:51.112Z,32.47
2022-11-08T21:47:53.006Z,26.95
2022-11-08T21:49:55.142Z,35.10
2022-11-08T21:51:56.624Z,35.20
2022-11-08T21:53:58.507Z,37.20
2022-11-08T21:55:59.902Z,43.47
2022-11-08T21:58:01.592Z,43.38
2022-11-08T22:00:03.567Z,35.50
2022-11-08T22:02:05.110Z,43.55
2022-11-08T22:04:06.727Z,35.20
2022-11-08T22:06:08.607Z,36.60
2022-11-08T22:08:10.033Z,46.70
2022-11-08T22:10:11.885Z,33.10
2022-11-08T22:12:13.293Z,47.35
2022-11-08T22:14:14.725Z,42.97
2022-11-08T22:16:16.319Z,35.17
2022-11-08T22:18:26.354Z,37.47
2022-11-08T22:20:58.024Z,35.40
2022-11-08T22:23:01.759Z,34.72
2022-11-08T22:25:06.564Z,42.70
2022-11-08T22:27:08.129Z,48.35
2022-11-08T22:29:10.171Z,44.28
2022-11-08T22:31:11.640Z,46.20
2022-11-08T22:33:19.990Z,47.53
2022-11-08T22:35:28.761Z,42.03
2022-11-08T22:37:33.935Z,31.77
2022-11-08T22:39:41.533Z,44.40
2022-11-08T22:41:50.644Z,36.97
2022-11-08T22:44:00.361Z,36.53
2022-11-08T22:46:10.657Z,26.08
2022-11-08T22:48:18.785Z,35.60
2022-11-08T22:50:27.793Z,33.13
2022-11-08T22:52:36.402Z,46.60
2022-11-08T22:55:10.050Z,37.25
2022-11-08T22:57:20.273Z,30.05
2022-11-08T22:59:29.787Z,30.58
2022-11-08T23:01:39.845Z,37.28
2022-11-08T23:03:47.124Z,30.95
2022-11-08T23:05:52.401Z,23.67
2022-11-08T23:07:54.273Z,40.03
2022-11-08T23:09:55.773Z,29.55
2022-11-08T23:12:15.898Z,29.40
2022-11-08T23:14:37.711Z,31.30
2022-11-08T23:16:41.280Z,35.20
2022-11-08T23:19:02.789Z,28.00
2022-11-08T23:21:23.046Z,23.02
2022-11-08T23:23:43.012Z,27.95
2022-11-08T23:25:44.399Z,28.27
2022-11-08T23:28:04.305Z,30.40
2022-11-08T23:30:25.205Z,33.20
2022-11-08T23:32:26.650Z,38.83
2022-11-08T23:34:28.817Z,37.95
2022-11-08T23:36:30.536Z,26.48
2022-11-08T23:38:32.293Z,28.90
2022-11-08T23:40:52.395Z,16.67
2022-11-08T23:43:35.681Z,34.35
2022-11-08T23:45:37.091Z,34.80
2022-11-08T23:47:38.676Z,34.75
2022-11-08T23:49:40.358Z,24.45
2022-11-08T23:51:41.817Z,29.65
2022-11-08T23:53:43.922Z,29.33
2022-11-08T23:55:45.443Z,26.20
2022-11-08T23:57:47.365Z,32.03
2022-11-08T23:59:48.894Z,29.70
